Sea Breeze — WDJ8450 — position and weather

sailwx.info

Track history (hours):
 
Tides and Currents Weather Stations Pressure Air Temp Water Temp Dewpoint Dewpoint Depression Visibility Wind Speed Wind Dir Waves Ship Positions

Sea Breeze

Owner: Nickodemus, Timothy D, Wake Forest, NC. More information available from US FCC via Universal Licensing System and Coast Guard Vessel Documentation Center.

Last reported at 2018-Aug-19 01:08 UTC. Time now 2018-Aug-20 16:21 UTC.
Position N 29°45' W 095°06'.

Length 204 m; draft 3 m.

Type: . MMSI: 367005220.

Date/timePositionNaut miles runAvg speedWind from/ knotsBaromVisibWave heightAir tempDewpointWater temp
2018-Aug-19 01:08N 29°45' W 095°06'0 0.0
2018-Aug-18 23:49N 29°45' W 095°06'0 0.0
2018-Aug-18 21:37N 29°45' W 095°06'0 0.0
2018-Aug-18 21:30N 29°45' W 095°06'0 0.0
2018-Aug-18 20:54N 29°45' W 095°06'0 0.0
2018-Aug-18 19:20N 29°45' W 095°06'  
2018-Aug-16 14:43N 29°45' W 095°06'2 0.5
2018-Aug-16 10:24N 29°44' W 095°03'2 0.3
2018-Aug-16 01:39N 29°46' W 095°06'0 0.0
2018-Aug-16 01:29N 29°46' W 095°06'1 2.1
2018-Aug-16 00:52N 29°44' W 095°06'0 0.0
2018-Aug-14 20:56N 29°45' W 095°06'2 0.1
2018-Aug-13 07:54N 29°46' W 095°04'1 0.0
2018-Aug-11 16:53N 29°46' W 095°06'0 0.0
2018-Aug-11 10:58N 29°46' W 095°06'0 0.0
2018-Aug-11 05:36N 29°46' W 095°06'0 0.3
2018-Aug-11 05:30N 29°45' W 095°06'2 1.5
2018-Aug-11 04:23N 29°45' W 095°04'1 1.8
2018-Aug-11 03:49N 29°44' W 095°03'2 4.9
2018-Aug-11 03:25N 29°43' W 095°01'2 4.3
2018-Aug-11 03:00N 29°42' W 094°60'2 4.5
2018-Aug-11 02:29N 29°40' W 094°58'3 5.7
2018-Aug-11 02:00N 29°37' W 094°57'3 6.0
2018-Aug-11 01:30N 29°35' W 094°56'3 6.0
2018-Aug-11 00:58N 29°32' W 094°54'3 5.6
2018-Aug-11 00:30N 29°30' W 094°52'8 5.3
2018-Aug-10 23:02N 29°23' W 094°48'0 5.3
2018-Aug-10 23:00N 29°22' W 094°48'4 5.5
2018-Aug-10 22:20N 29°20' W 094°51'2 6.0
2018-Aug-10 22:00N 29°18' W 094°53'2 5.0
2018-Aug-10 21:30N 29°17' W 094°56'3 5.3
2018-Aug-10 21:00N 29°17' W 094°59'3 5.2
2018-Aug-10 20:30N 29°15' W 095°00'2 4.7
2018-Aug-10 20:00N 29°13' W 095°02'2 4.9
2018-Aug-10 19:30N 29°12' W 095°04'3 5.2
2018-Aug-10 19:00N 29°10' W 095°07'3 5.5
2018-Aug-10 18:30N 29°09' W 095°10'3 5.3
2018-Aug-10 18:00N 29°07' W 095°12'3 5.2
2018-Aug-10 17:30N 29°04' W 095°13'3 5.1
2018-Aug-10 17:00N 29°02' W 095°14'3 5.6
2018-Aug-10 16:30N 28°60' W 095°15'3 5.5
2018-Aug-10 16:00N 28°58' W 095°17'3 5.6
2018-Aug-10 15:28N 28°56' W 095°20'  
Track history (hours):
 
Tides and Currents Weather Stations Pressure Air Temp Water Temp Dewpoint Dewpoint Depression Visibility Wind Speed Wind Dir Waves Ship Positions

Sea Breeze

Owner: Nickodemus, Timothy D, Wake Forest, NC. More information available from US FCC via Universal Licensing System and Coast Guard Vessel Documentation Center.

Last reported at 2018-Aug-19 01:08 UTC. Time now 2018-Aug-20 16:21 UTC.
Position N 29°45' W 095°06'.

Length 204 m; draft 3 m.

Type: . MMSI: 367005220.

Date/timePositionNaut miles runAvg speedWind from/ knotsBaromVisibWave heightAir tempDewpointWater temp
2018-Aug-19 01:08N 29°45' W 095°06'0 0.0
2018-Aug-18 23:49N 29°45' W 095°06'0 0.0
2018-Aug-18 21:37N 29°45' W 095°06'0 0.0
2018-Aug-18 21:30N 29°45' W 095°06'0 0.0
2018-Aug-18 20:54N 29°45' W 095°06'0 0.0
2018-Aug-18 19:20N 29°45' W 095°06'  
2018-Aug-16 14:43N 29°45' W 095°06'2 0.5
2018-Aug-16 10:24N 29°44' W 095°03'2 0.3
2018-Aug-16 01:39N 29°46' W 095°06'0 0.0
2018-Aug-16 01:29N 29°46' W 095°06'1 2.1
2018-Aug-16 00:52N 29°44' W 095°06'0 0.0
2018-Aug-14 20:56N 29°45' W 095°06'2 0.1
2018-Aug-13 07:54N 29°46' W 095°04'1 0.0
2018-Aug-11 16:53N 29°46' W 095°06'0 0.0
2018-Aug-11 10:58N 29°46' W 095°06'0 0.0
2018-Aug-11 05:36N 29°46' W 095°06'0 0.3
2018-Aug-11 05:30N 29°45' W 095°06'2 1.5
2018-Aug-11 04:23N 29°45' W 095°04'1 1.8
2018-Aug-11 03:49N 29°44' W 095°03'2 4.9
2018-Aug-11 03:25N 29°43' W 095°01'2 4.3
2018-Aug-11 03:00N 29°42' W 094°60'2 4.5
2018-Aug-11 02:29N 29°40' W 094°58'3 5.7
2018-Aug-11 02:00N 29°37' W 094°57'3 6.0
2018-Aug-11 01:30N 29°35' W 094°56'3 6.0
2018-Aug-11 00:58N 29°32' W 094°54'3 5.6
2018-Aug-11 00:30N 29°30' W 094°52'8 5.3
2018-Aug-10 23:02N 29°23' W 094°48'0 5.3
2018-Aug-10 23:00N 29°22' W 094°48'4 5.5
2018-Aug-10 22:20N 29°20' W 094°51'2 6.0
2018-Aug-10 22:00N 29°18' W 094°53'2 5.0
2018-Aug-10 21:30N 29°17' W 094°56'3 5.3
2018-Aug-10 21:00N 29°17' W 094°59'3 5.2
2018-Aug-10 20:30N 29°15' W 095°00'2 4.7
2018-Aug-10 20:00N 29°13' W 095°02'2 4.9
2018-Aug-10 19:30N 29°12' W 095°04'3 5.2
2018-Aug-10 19:00N 29°10' W 095°07'3 5.5
2018-Aug-10 18:30N 29°09' W 095°10'3 5.3
2018-Aug-10 18:00N 29°07' W 095°12'3 5.2
2018-Aug-10 17:30N 29°04' W 095°13'3 5.1
2018-Aug-10 17:00N 29°02' W 095°14'3 5.6
2018-Aug-10 16:30N 28°60' W 095°15'3 5.5
2018-Aug-10 16:00N 28°58' W 095°17'3 5.6
2018-Aug-10 15:28N 28°56' W 095°20'  

Dump ship's entire track history